sensor_id;sensor_type;location;lat;lon;timestamp;pressure;altitude;pressure_sealevel;temperature;humidity
21011;BME280;10663;42.714;23.274;2024-03-17T18:21:41;95046.06;;;10.60;86.64
21011;BME280;10663;42.714;23.274;2024-03-17T18:23:13;95041.81;;;10.59;86.40
21011;BME280;10663;42.714;23.274;2024-03-17T18:24:51;95035.72;;;10.59;86.02
21011;BME280;10663;42.714;23.274;2024-03-17T18:26:22;95033.91;;;10.64;86.57
21011;BME280;10663;42.714;23.274;2024-03-17T18:27:54;95033.38;;;10.62;85.89
21011;BME280;10663;42.714;23.274;2024-03-17T18:29:27;95033.59;;;10.56;85.54
21011;BME280;10663;42.714;23.274;2024-03-17T18:30:58;95032.75;;;10.50;85.58
21011;BME280;10663;42.714;23.274;2024-03-17T18:32:29;95033.53;;;10.45;85.61
21011;BME280;10663;42.714;23.274;2024-03-17T18:34:00;95031.94;;;10.44;86.02
21011;BME280;10663;42.714;23.274;2024-03-17T18:35:31;95044.94;;;10.46;86.05
21011;BME280;10663;42.714;23.274;2024-03-17T18:37:03;95052.06;;;10.45;85.93
21011;BME280;10663;42.714;23.274;2024-03-17T18:38:34;95055.22;;;10.42;86.11
21011;BME280;10663;42.714;23.274;2024-03-17T18:40:05;95053.06;;;10.39;85.92
21011;BME280;10663;42.714;23.274;2024-03-17T18:41:36;95052.00;;;10.35;86.74
21011;BME280;10663;42.714;23.274;2024-03-17T18:43:07;95050.97;;;10.41;86.76
21011;BME280;10663;42.714;23.274;2024-03-17T18:44:38;95061.53;;;10.36;86.74
21011;BME280;10663;42.714;23.274;2024-03-17T18:46:11;95049.44;;;10.45;86.77
21011;BME280;10663;42.714;23.274;2024-03-17T18:47:42;95060.22;;;10.39;86.78
21011;BME280;10663;42.714;23.274;2024-03-17T18:49:13;95054.91;;;10.34;86.84
21011;BME280;10663;42.714;23.274;2024-03-17T18:50:44;95058.34;;;10.34;86.72
21011;BME280;10663;42.714;23.274;2024-03-17T18:52:15;95059.41;;;10.38;86.78
21011;BME280;10663;42.714;23.274;2024-03-17T18:53:46;95060.75;;;10.41;86.61
21011;BME280;10663;42.714;23.274;2024-03-17T18:55:22;95060.25;;;10.44;86.72
21011;BME280;10663;42.714;23.274;2024-03-17T18:56:55;95055.47;;;10.41;86.79
21011;BME280;10663;42.714;23.274;2024-03-17T18:58:27;95054.72;;;10.45;86.96
21011;BME280;10663;42.714;23.274;2024-03-17T19:00:01;95057.56;;;10.39;86.86
21011;BME280;10663;42.714;23.274;2024-03-17T19:01:32;95050.72;;;10.43;87.02
21011;BME280;10663;42.714;23.274;2024-03-17T19:03:02;95050.63;;;10.28;87.67
21011;BME280;10663;42.714;23.274;2024-03-17T19:04:33;95057.22;;;10.25;88.64
21011;BME280;10663;42.714;23.274;2024-03-17T19:06:14;95057.72;;;10.22;89.33
21011;BME280;10663;42.714;23.274;2024-03-17T19:07:46;95060.59;;;10.21;90.17
21011;BME280;10663;42.714;23.274;2024-03-17T19:09:18;95051.56;;;10.17;90.40
21011;BME280;10663;42.714;23.274;2024-03-17T19:10:51;95047.28;;;10.10;91.21
21011;BME280;10663;42.714;23.274;2024-03-17T19:12:22;95058.06;;;10.04;91.84
21011;BME280;10663;42.714;23.274;2024-03-17T19:13:53;95052.53;;;10.05;90.97
21011;BME280;10663;42.714;23.274;2024-03-17T19:15:24;95052.50;;;10.00;91.68
21011;BME280;10663;42.714;23.274;2024-03-17T19:16:56;95053.81;;;10.03;90.72
21011;BME280;10663;42.714;23.274;2024-03-17T19:18:29;95046.94;;;10.02;90.82
21011;BME280;10663;42.714;23.274;2024-03-17T19:20:00;95054.88;;;10.02;90.98
21011;BME280;10663;42.714;23.274;2024-03-17T19:21:30;95054.34;;;10.00;91.27
21011;BME280;10663;42.714;23.274;2024-03-17T19:23:06;95055.31;;;9.94;91.67
21011;BME280;10663;42.714;23.274;2024-03-17T19:24:36;95049.00;;;9.95;91.62
21011;BME280;10663;42.714;23.274;2024-03-17T19:26:11;95060.09;;;9.92;92.12
21011;BME280;10663;42.714;23.274;2024-03-17T19:27:42;95057.63;;;9.85;92.17
21011;BME280;10663;42.714;23.274;2024-03-17T19:29:14;95056.81;;;9.80;92.78
21011;BME280;10663;42.714;23.274;2024-03-17T19:30:54;95047.22;;;9.73;92.87
21011;BME280;10663;42.714;23.274;2024-03-17T19:32:24;95044.59;;;9.73;93.46
21011;BME280;10663;42.714;23.274;2024-03-17T19:33:55;95044.63;;;9.79;93.63
21011;BME280;10663;42.714;23.274;2024-03-17T19:35:28;95046.44;;;9.73;94.38
21011;BME280;10663;42.714;23.274;2024-03-17T19:36:59;95041.63;;;9.70;94.63
21011;BME280;10663;42.714;23.274;2024-03-17T19:38:29;95047.16;;;9.68;94.73
21011;BME280;10663;42.714;23.274;2024-03-17T19:40:00;95046.88;;;9.65;94.93
21011;BME280;10663;42.714;23.274;2024-03-17T19:41:30;95038.09;;;9.59;95.47
21011;BME280;10663;42.714;23.274;2024-03-17T19:43:01;95046.03;;;9.59;96.07
21011;BME280;10663;42.714;23.274;2024-03-17T19:44:32;95038.06;;;9.54;96.08
21011;BME280;10663;42.714;23.274;2024-03-17T19:46:04;95042.78;;;9.52;96.61
21011;BME280;10663;42.714;23.274;2024-03-17T19:47:40;95040.13;;;9.52;96.43
21011;BME280;10663;42.714;23.274;2024-03-17T19:49:10;95036.13;;;9.50;96.46
21011;BME280;10663;42.714;23.274;2024-03-17T19:50:41;95036.13;;;9.50;96.51
21011;BME280;10663;42.714;23.274;2024-03-17T19:52:11;95044.28;;;9.43;96.56
21011;BME280;10663;42.714;23.274;2024-03-17T19:53:44;95034.50;;;9.44;96.48
21011;BME280;10663;42.714;23.274;2024-03-17T19:55:15;95039.22;;;9.42;96.10
21011;BME280;10663;42.714;23.274;2024-03-17T19:56:48;95041.94;;;9.47;96.26
21011;BME280;10663;42.714;23.274;2024-03-17T19:58:18;95044.84;;;9.45;96.02
21011;BME280;10663;42.714;23.274;2024-03-17T19:59:50;95046.69;;;9.45;96.10
21011;BME280;10663;42.714;23.274;2024-03-17T20:01:21;95042.47;;;9.49;95.97
21011;BME280;10663;42.714;23.274;2024-03-17T20:02:52;95055.41;;;9.45;95.77
21011;BME280;10663;42.714;23.274;2024-03-17T20:04:24;95039.78;;;9.44;95.88
21011;BME280;10663;42.714;23.274;2024-03-17T20:05:55;95042.72;;;9.47;95.46
21011;BME280;10663;42.714;23.274;2024-03-17T20:07:27;95054.53;;;9.39;95.05
21011;BME280;10663;42.714;23.274;2024-03-17T20:08:57;95051.44;;;9.48;94.07
21011;BME280;10663;42.714;23.274;2024-03-17T20:10:28;95048.06;;;9.52;93.31
21011;BME280;10663;42.714;23.274;2024-03-17T20:11:58;95047.50;;;9.50;93.30
21011;BME280;10663;42.714;23.274;2024-03-17T20:13:29;95049.34;;;9.50;93.08
21011;BME280;10663;42.714;23.274;2024-03-17T20:15:00;95046.44;;;9.46;93.38
21011;BME280;10663;42.714;23.274;2024-03-17T20:16:30;95047.47;;;9.45;93.27
21011;BME280;10663;42.714;23.274;2024-03-17T20:18:07;95039.22;;;9.42;93.51
21011;BME280;10663;42.714;23.274;2024-03-17T20:19:41;95048.19;;;9.41;93.36
21011;BME280;10663;42.714;23.274;2024-03-17T20:21:13;95039.22;;;9.42;93.73
21011;BME280;10663;42.714;23.274;2024-03-17T20:22:44;95042.72;;;9.47;93.22
21011;BME280;10663;42.714;23.274;2024-03-17T20:24:15;95052.81;;;9.50;92.97
21011;BME280;10663;42.714;23.274;2024-03-17T20:25:45;95045.88;;;9.44;93.33
21011;BME280;10663;42.714;23.274;2024-03-17T20:27:16;95051.88;;;9.39;93.72
21011;BME280;10663;42.714;23.274;2024-03-17T20:28:47;95051.03;;;9.34;93.88
21011;BME280;10663;42.714;23.274;2024-03-17T20:30:17;95044.97;;;9.33;94.13
21011;BME280;10663;42.714;23.274;2024-03-17T20:31:52;95041.75;;;9.31;94.11
21011;BME280;10663;42.714;23.274;2024-03-17T20:33:22;95044.13;;;9.28;94.30
21011;BME280;10663;42.714;23.274;2024-03-17T20:34:53;95043.00;;;9.24;94.16
21011;BME280;10663;42.714;23.274;2024-03-17T20:36:26;95044.03;;;9.23;94.57
21011;BME280;10663;42.714;23.274;2024-03-17T20:37:57;95041.88;;;9.20;94.84
21011;BME280;10663;42.714;23.274;2024-03-17T20:39:29;95047.69;;;9.17;94.51
21011;BME280;10663;42.714;23.274;2024-03-17T20:42:56;95038.66;;;9.13;94.18
21011;BME280;10663;42.714;23.274;2024-03-17T20:44:26;95037.34;;;9.15;93.85
21011;BME280;10663;42.714;23.274;2024-03-17T20:45:57;95041.00;;;9.09;93.97
21011;BME280;10663;42.714;23.274;2024-03-17T20:47:28;95040.06;;;8.98;94.45
21011;BME280;10663;42.714;23.274;2024-03-17T20:48:58;95043.75;;;8.97;94.68
21011;BME280;10663;42.714;23.274;2024-03-17T20:50:29;95039.47;;;8.91;94.57
21011;BME280;10663;42.714;23.274;2024-03-17T20:52:02;95035.22;;;8.90;94.49
21011;BME280;10663;42.714;23.274;2024-03-17T20:53:34;95028.59;;;8.88;94.87
21011;BME280;10663;42.714;23.274;2024-03-17T20:55:05;95031.09;;;8.78;94.89
21011;BME280;10663;42.714;23.274;2024-03-17T20:56:36;95029.25;;;8.78;95.14
21011;BME280;10663;42.714;23.274;2024-03-17T20:58:07;95033.97;;;8.76;95.67
21011;BME280;10663;42.714;23.274;2024-03-17T20:59:37;95029.00;;;8.80;95.38
21011;BME280;10663;42.714;23.274;2024-03-17T21:01:10;95040.66;;;8.84;95.06
21011;BME280;10663;42.714;23.274;2024-03-17T21:02:41;95035.91;;;8.81;94.81
21011;BME280;10663;42.714;23.274;2024-03-17T21:04:12;95034.06;;;8.81;94.93
21011;BME280;10663;42.714;23.274;2024-03-17T21:05:43;95039.16;;;8.88;94.31
21011;BME280;10663;42.714;23.274;2024-03-17T21:07:14;95037.72;;;8.80;94.65
21011;BME280;10663;42.714;23.274;2024-03-17T21:08:45;95038.03;;;8.84;94.35
21011;BME280;10663;42.714;23.274;2024-03-17T21:10:16;95040.94;;;8.82;94.35
21011;BME280;10663;42.714;23.274;2024-03-17T21:11:48;95025.50;;;8.74;94.54
21011;BME280;10663;42.714;23.274;2024-03-17T21:13:20;95039.91;;;8.67;94.74
21011;BME280;10663;42.714;23.274;2024-03-17T21:14:51;95049.16;;;8.64;95.23
21011;BME280;10663;42.714;23.274;2024-03-17T21:16:22;95039.44;;;8.70;94.78
21011;BME280;10663;42.714;23.274;2024-03-17T21:17:53;95037.50;;;8.65;94.82
21011;BME280;10663;42.714;23.274;2024-03-17T21:19:24;95035.38;;;8.62;94.74
21011;BME280;10663;42.714;23.274;2024-03-17T21:21:03;95034.63;;;8.67;94.69
21011;BME280;10663;42.714;23.274;2024-03-17T21:22:35;95033.31;;;8.64;94.71
21011;BME280;10663;42.714;23.274;2024-03-17T21:24:05;95026.84;;;8.55;94.88
21011;BME280;10663;42.714;23.274;2024-03-17T21:25:36;95029.78;;;8.58;94.65
21011;BME280;10663;42.714;23.274;2024-03-17T21:27:07;95027.66;;;8.55;94.78
21011;BME280;10663;42.714;23.274;2024-03-17T21:28:40;95026.09;;;8.59;94.26
21011;BME280;10663;42.714;23.274;2024-03-17T21:30:12;95015.13;;;8.68;93.75
21011;BME280;10663;42.714;23.274;2024-03-17T21:31:44;95020.97;;;8.70;93.33
21011;BME280;10663;42.714;23.274;2024-03-17T21:33:15;95024.97;;;8.72;92.74
21011;BME280;10663;42.714;23.274;2024-03-17T21:34:46;95020.72;;;8.71;92.34
21011;BME280;10663;42.714;23.274;2024-03-17T21:36:21;95017.34;;;8.76;91.58
21011;BME280;10663;42.714;23.274;2024-03-17T21:37:53;95017.09;;;8.77;91.45
21011;BME280;10663;42.714;23.274;2024-03-17T21:39:24;95017.09;;;8.77;91.03
21011;BME280;10663;42.714;23.274;2024-03-17T21:40:56;95019.97;;;8.76;91.42
21011;BME280;10663;42.714;23.274;2024-03-17T21:42:27;95025.91;;;8.66;91.67
21011;BME280;10663;42.714;23.274;2024-03-17T21:43:57;95016.25;;;8.72;90.98
21011;BME280;10663;42.714;23.274;2024-03-17T21:45:28;95019.50;;;8.79;90.65
21011;BME280;10663;42.714;23.274;2024-03-17T21:46:59;95019.31;;;8.85;90.23
21011;BME280;10663;42.714;23.274;2024-03-17T21:48:30;95018.81;;;8.88;89.72
21011;BME280;10663;42.714;23.274;2024-03-17T21:50:01;95022.19;;;8.84;89.86
21011;BME280;10663;42.714;23.274;2024-03-17T21:51:32;95017.41;;;8.81;89.60
21011;BME280;10663;42.714;23.274;2024-03-17T21:53:03;95027.16;;;8.80;89.64
21011;BME280;10663;42.714;23.274;2024-03-17T21:54:34;95022.97;;;8.84;88.99
21011;BME280;10663;42.714;23.274;2024-03-17T21:56:05;95024.34;;;8.87;88.76
21011;BME280;10663;42.714;23.274;2024-03-17T21:57:36;95021.69;;;8.87;88.80
21011;BME280;10663;42.714;23.274;2024-03-17T21:59:08;95019.53;;;8.84;88.40
21011;BME280;10663;42.714;23.274;2024-03-17T22:00:39;95029.25;;;8.78;88.27
21011;BME280;10663;42.714;23.274;2024-03-17T22:02:10;95023.16;;;8.78;88.45
21011;BME280;10663;42.714;23.274;2024-03-17T22:03:42;95015.19;;;8.73;88.09
21011;BME280;10663;42.714;23.274;2024-03-17T22:05:13;95017.84;;;8.73;88.33
21011;BME280;10663;42.714;23.274;2024-03-17T22:06:43;95014.41;;;8.72;87.97
21011;BME280;10663;42.714;23.274;2024-03-17T22:08:14;95019.69;;;8.72;88.02
21011;BME280;10663;42.714;23.274;2024-03-17T22:09:45;95015.44;;;8.71;87.68
21011;BME280;10663;42.714;23.274;2024-03-17T22:11:16;95021.44;;;8.67;87.64
21011;BME280;10663;42.714;23.274;2024-03-17T22:12:46;95017.53;;;8.69;87.81
21011;BME280;10663;42.714;23.274;2024-03-17T22:14:17;95014.63;;;8.71;87.18
21011;BME280;10663;42.714;23.274;2024-03-17T22:15:55;95019.69;;;8.72;87.18
21011;BME280;10663;42.714;23.274;2024-03-17T22:17:26;95016.16;;;8.67;87.67
21011;BME280;10663;42.714;23.274;2024-03-17T22:18:59;95016.09;;;8.61;87.65
21011;BME280;10663;42.714;23.274;2024-03-17T22:20:29;95007.94;;;8.63;87.27
21011;BME280;10663;42.714;23.274;2024-03-17T22:22:00;95014.44;;;8.55;87.61
21011;BME280;10663;42.714;23.274;2024-03-17T22:23:31;95012.34;;;8.57;87.57
21011;BME280;10663;42.714;23.274;2024-03-17T22:25:02;95012.53;;;8.51;87.48
21011;BME280;10663;42.714;23.274;2024-03-17T22:26:33;95008.06;;;8.51;87.56
21011;BME280;10663;42.714;23.274;2024-03-17T22:28:07;95016.16;;;8.45;87.10
21011;BME280;10663;42.714;23.274;2024-03-17T22:29:37;95013.56;;;8.50;87.13
21011;BME280;10663;42.714;23.274;2024-03-17T22:31:08;95005.09;;;8.48;87.09
21011;BME280;10663;42.714;23.274;2024-03-17T22:32:39;95006.63;;;8.44;86.81
21011;BME280;10663;42.714;23.274;2024-03-17T22:34:10;95006.88;;;8.42;87.05
21011;BME280;10663;42.714;23.274;2024-03-17T22:35:40;95002.72;;;8.46;86.59
21011;BME280;10663;42.714;23.274;2024-03-17T22:37:11;94997.50;;;8.51;86.01
21011;BME280;10663;42.714;23.274;2024-03-17T22:38:42;95006.63;;;8.44;86.23
21011;BME280;10663;42.714;23.274;2024-03-17T22:40:12;95005.28;;;8.41;86.19
21011;BME280;10663;42.714;23.274;2024-03-17T22:41:43;95009.28;;;8.44;85.70
21011;BME280;10663;42.714;23.274;2024-03-17T22:43:15;95004.00;;;8.44;84.98
21011;BME280;10663;42.714;23.274;2024-03-17T22:44:46;94999.75;;;8.43;84.69
21011;BME280;10663;42.714;23.274;2024-03-17T22:46:18;95000.22;;;8.40;84.80
21011;BME280;10663;42.714;23.274;2024-03-17T22:47:49;95002.06;;;8.39;84.53
21011;BME280;10663;42.714;23.274;2024-03-17T22:49:19;94999.50;;;8.44;84.06
21011;BME280;10663;42.714;23.274;2024-03-17T22:50:53;94991.84;;;8.43;83.76
21011;BME280;10663;42.714;23.274;2024-03-17T22:52:24;94993.84;;;8.36;84.25
21011;BME280;10663;42.714;23.274;2024-03-17T22:53:54;94994.09;;;8.34;84.55
21011;BME280;10663;42.714;23.274;2024-03-17T22:55:25;95001.59;;;8.25;85.70
21011;BME280;10663;42.714;23.274;2024-03-17T22:56:56;94997.63;;;8.06;86.71
21011;BME280;10663;42.714;23.274;2024-03-17T22:58:26;94997.53;;;7.84;88.53
21011;BME280;10663;42.714;23.274;2024-03-17T22:59:58;94997.63;;;7.73;89.31
21011;BME280;10663;42.714;23.274;2024-03-17T23:01:29;94992.75;;;7.65;89.75
21011;BME280;10663;42.714;23.274;2024-03-17T23:03:06;95000.97;;;7.51;90.45
21011;BME280;10663;42.714;23.274;2024-03-17T23:04:36;95002.03;;;7.39;90.96
21011;BME280;10663;42.714;23.274;2024-03-17T23:06:08;94998.63;;;7.38;91.60
21011;BME280;10663;42.714;23.274;2024-03-17T23:07:42;94999.34;;;7.34;90.94
21011;BME280;10663;42.714;23.274;2024-03-17T23:09:12;95000.03;;;7.29;91.18
21011;BME280;10663;42.714;23.274;2024-03-17T23:10:45;94999.56;;;7.32;90.66
21011;BME280;10663;42.714;23.274;2024-03-17T23:12:16;95001.16;;;7.33;91.15
21011;BME280;10663;42.714;23.274;2024-03-17T23:13:46;95004.03;;;7.32;90.44
21011;BME280;10663;42.714;23.274;2024-03-17T23:15:23;95002.94;;;7.28;91.06
21011;BME280;10663;42.714;23.274;2024-03-17T23:16:54;95003.47;;;7.30;91.24
21011;BME280;10663;42.714;23.274;2024-03-17T23:18:25;95002.34;;;7.26;91.01
21011;BME280;10663;42.714;23.274;2024-03-17T23:19:55;95000.09;;;7.18;91.08
21011;BME280;10663;42.714;23.274;2024-03-17T23:21:26;94999.63;;;7.21;91.14
21011;BME280;10663;42.714;23.274;2024-03-17T23:22:57;94997.47;;;7.18;91.15
21011;BME280;10663;42.714;23.274;2024-03-17T23:24:30;94996.03;;;7.10;91.80
21011;BME280;10663;42.714;23.274;2024-03-17T23:26:01;94997.06;;;7.09;91.81
21011;BME280;10663;42.714;23.274;2024-03-17T23:27:33;94997.84;;;7.09;91.93
21011;BME280;10663;42.714;23.274;2024-03-17T23:29:03;94999.91;;;7.07;91.77
21011;BME280;10663;42.714;23.274;2024-03-17T23:30:35;94994.66;;;7.07;92.29
21011;BME280;10663;42.714;23.274;2024-03-17T23:32:06;94994.66;;;7.07;92.13
21011;BME280;10663;42.714;23.274;2024-03-17T23:33:37;94986.97;;;7.06;92.00
21011;BME280;10663;42.714;23.274;2024-03-17T23:35:07;94994.22;;;6.99;92.33
21011;BME280;10663;42.714;23.274;2024-03-17T23:36:38;94989.53;;;7.01;92.58
21011;BME280;10663;42.714;23.274;2024-03-17T23:38:09;94995.34;;;7.03;91.92
21011;BME280;10663;42.714;23.274;2024-03-17T23:39:40;94989.75;;;6.99;92.28
21011;BME280;10663;42.714;23.274;2024-03-17T23:41:11;94988.63;;;6.95;92.48
21011;BME280;10663;42.714;23.274;2024-03-17T23:42:42;94981.44;;;6.91;92.54
21011;BME280;10663;42.714;23.274;2024-03-17T23:44:13;94980.16;;;6.93;92.70
21011;BME280;10663;42.714;23.274;2024-03-17T23:45:44;94983.34;;;6.95;93.91
21011;BME280;10663;42.714;23.274;2024-03-17T23:47:14;94978.44;;;6.99;92.60
21011;BME280;10663;42.714;23.274;2024-03-17T23:48:45;94980.16;;;6.93;93.60
21011;BME280;10663;42.714;23.274;2024-03-17T23:50:16;94978.81;;;6.91;93.11
21011;BME280;10663;42.714;23.274;2024-03-17T23:51:46;94971.28;;;6.83;93.13
21011;BME280;10663;42.714;23.274;2024-03-17T23:53:17;94969.75;;;6.87;93.74
21011;BME280;10663;42.714;23.274;2024-03-17T23:54:47;94968.88;;;6.81;93.25
21011;BME280;10663;42.714;23.274;2024-03-17T23:56:18;94967.50;;;6.79;94.02
21011;BME280;10663;42.714;23.274;2024-03-17T23:57:49;94970.28;;;6.72;93.62
21011;BME280;10663;42.714;23.274;2024-03-17T23:59:20;94971.63;;;6.74;93.89
